Hlavní strana
METAR-TAF:

METAR-TAF

Letiště :

Terre Haute, Indiana, Spojené státy americké

zeměpisná šířka: 39-26-30N, zeměpisná délka: 087-19-31W, výška: 178 m

Aktuální stav počasí

Zpráva byla vytvořena před 56 minutami, v 10:53 UTC
Východoseverovýchodní vítr 3 kt
Teplota -2°C
Vlhkost vzduchu 63%
Tlak 1029 hPa
Viditelnost: 16.1 km
Jasno

METAR: KHUF 071053Z 07003KT 10SM CLR M02/M08 A3040 RMK AO2 SLP297 T10221078

Čas: 06:49 (11:49 UTC)

Předpověď počasí

Zpráva byla vytvořena před 29 minutami, v 11:20 UTC
Předpověď platná od 07 v 12 UTC do 08 v 12 UTC
Jihovýchodní vítr 4 kt
Viditelnost: 10 km
Jasno
Od 07 v 1700 UTC
Jižní vítr 5 kt
Viditelnost: 10 km
Jasno
Od 07 v 2100 UTC
Jihojihozápadní vítr 5 kt
Viditelnost: 10 km
Skoro jasno ve výšce 25000 ft

TAF: KHUF 071120Z 0712/0812 13004KT P6SM SKC FM071700 17005KT P6SM SKC FM072100 20005KT P6SM FEW250

Stav a předpovědi počasí z více než 4 000 letišť (zprávy METAR a TAF).

Červené a žluté tečky na mapě představují dostupné meteorologické stanice.

Když kurzor umístíte na tečku, zobrazí se název stanice.

Pak kliknutím zobrazíte stav a předpověď počasí.

Chcete-li změnit mapu, kliknutím na zelené tlačítko se znaménkem +mapu přiblížíte, kliknutím na zelené tlačítko se znaménkem – mapu oddálíte a kliknutím na zelené šipky přejdete na sousední mapy.


METAR-TAF: